Time;durP1;ratioP1;P1;durP2;ratioP2;P2;SDS_P1;SDS_P2;PMS_P1;PMS_P2;Temp;Humidity;BMP_temperature;BMP_pressure;BME280_temperature;BME280_humidity;BME280_pressure;Samples;Min_cycle;Max_cycle;Signal;HPM_P1;HPM_P2
2021/04/22 00:01:36;;;;;;;26.15;20.80;;;307.90;2022.40;;;;;;5074078;28;20046;-79
2021/04/22 00:04:03;;;;;;;28.02;22.60;;;307.80;2022.40;;;;;;5074004;28;20480;-80
2021/04/22 00:06:29;;;;;;;24.98;21.42;;;307.80;2048.00;;;;;;5073839;28;20032;-80
2021/04/22 00:08:55;;;;;;;26.15;21.05;;;307.80;2048.00;;;;;;5073851;28;20512;-79
2021/04/22 00:11:21;;;;;;;25.73;21.92;;;307.80;2073.60;;;;;;5072262;28;20539;-80
2021/04/22 00:13:46;;;;;;;29.75;22.92;;;307.80;2073.60;;;;;;5072712;28;20032;-80
2021/04/22 00:16:13;;;;;;;24.35;20.70;;;307.80;2099.20;;;;;;5073452;28;20055;-79
2021/04/22 00:18:39;;;;;;;28.83;21.52;;;307.80;2099.20;;;;;;5072773;28;20105;-80
2021/04/22 00:21:05;;;;;;;25.92;22.10;;;307.70;2099.20;;;;;;5073682;28;20036;-79
2021/04/22 00:23:31;;;;;;;28.92;22.10;;;307.70;2073.60;;;;;;5072631;28;20024;-78
2021/04/22 00:25:57;;;;;;;27.30;21.75;;;307.70;2073.60;;;;;;5072255;28;20489;-80
2021/04/22 00:28:22;;;;;;;30.92;23.85;;;307.70;2099.20;;;;;;5077957;28;20040;-81
2021/04/22 00:30:49;;;;;;;32.08;23.25;;;307.70;2099.20;;;;;;5080339;28;20031;-81
2021/04/22 00:33:18;;;;;;;28.50;23.80;;;307.70;2099.20;;;;;;5078899;28;20028;-79
2021/04/22 00:35:44;;;;;;;27.77;23.48;;;307.70;2099.20;;;;;;5079052;28;20028;-79
2021/04/22 00:38:10;;;;;;;34.20;25.70;;;307.60;2099.20;;;;;;5078932;28;20033;-79
2021/04/22 00:40:37;;;;;;;33.88;24.83;;;307.70;2099.20;;;;;;5078139;28;20028;-79
2021/04/22 00:43:06;;;;;;;31.08;25.63;;;307.70;2099.20;;;;;;5080124;28;20501;-79
2021/04/22 00:45:32;;;;;;;32.97;25.75;;;307.70;2073.60;;;;;;5078793;28;20430;-79
2021/04/22 00:47:58;;;;;;;33.17;25.25;;;307.70;2099.20;;;;;;5080007;28;20535;-79
2021/04/22 00:50:27;;;;;;;36.00;27.23;;;307.70;2124.80;;;;;;5079825;28;20032;-78
2021/04/22 00:52:57;;;;;;;36.92;28.05;;;307.60;2124.80;;;;;;5095470;28;20051;-79
2021/04/22 00:55:23;;;;;;;34.80;27.07;;;307.60;2124.80;;;;;;5078697;28;20024;-79
2021/04/22 00:57:49;;;;;;;36.95;27.60;;;307.60;2124.80;;;;;;5078102;28;20603;-79
2021/04/22 01:00:18;;;;;;;38.60;29.20;;;307.60;2099.20;;;;;;5078764;28;20036;-79
2021/04/22 01:02:45;;;;;;;40.55;29.15;;;307.50;2124.80;;;;;;5095527;28;20046;-80
2021/04/22 01:05:21;;;;;;;34.38;27.02;;;307.50;2099.20;;;;;;5078691;28;20033;-80
2021/04/22 01:07:47;;;;;;;37.42;27.73;;;307.50;2124.80;;;;;;5080100;28;20052;-79
2021/04/22 01:10:15;;;;;;;33.00;26.25;;;307.40;2124.80;;;;;;5078715;28;20727;-79
2021/04/22 01:12:42;;;;;;;35.20;27.65;;;307.40;2124.80;;;;;;5078678;28;20108;-79
2021/04/22 01:15:14;;;;;;;35.65;27.08;;;307.30;2124.80;;;;;;5078081;28;20097;-79
2021/04/22 01:17:40;;;;;;;34.30;25.38;;;307.30;2124.80;;;;;;5077389;28;20044;-79
2021/04/22 01:20:30;;;;;;;36.92;28.58;;;307.30;2124.80;;;;;;5076957;28;20505;-80
2021/04/22 01:22:59;;;;;;;33.60;26.92;;;307.20;2124.80;;;;;;5077503;28;20024;-79
2021/04/22 01:25:28;;;;;;;34.22;26.98;;;307.20;2124.80;;;;;;5077684;28;20032;-78
2021/04/22 01:27:54;;;;;;;34.80;27.33;;;282.50;2099.20;;;;;;5079687;28;20044;-78
2021/04/22 01:30:25;;;;;;;32.35;25.83;;;282.40;2099.20;;;;;;5079545;28;20490;-78
2021/04/22 01:32:51;;;;;;;35.25;27.10;;;282.40;2099.20;;;;;;5078493;28;20031;-78
2021/04/22 01:35:22;;;;;;;33.70;25.65;;;282.40;2099.20;;;;;;5080104;28;20385;-78
2021/04/22 01:37:49;;;;;;;33.13;24.85;;;282.40;2099.20;;;;;;5082865;28;20509;-78
2021/04/22 01:40:17;;;;;;;33.20;26.92;;;282.30;2099.20;;;;;;5087827;28;20024;-79
2021/04/22 01:42:42;;;;;;;33.42;26.33;;;282.30;2099.20;;;;;;5076342;28;20077;-79
2021/04/22 01:45:09;;;;;;;35.42;26.30;;;282.30;2099.20;;;;;;5074448;28;20048;-79
2021/04/22 01:47:35;;;;;;;36.72;27.60;;;282.30;2099.20;;;;;;5074992;28;20488;-78
2021/04/22 01:50:03;;;;;;;34.83;27.05;;;282.30;2099.20;;;;;;5075011;28;20035;-79
2021/04/22 01:52:28;;;;;;;34.67;27.35;;;282.20;2099.20;;;;;;5074816;28;20122;-79
2021/04/22 01:54:56;;;;;;;39.97;27.45;;;282.20;2099.20;;;;;;5058190;28;20486;-79
2021/04/22 01:57:22;;;;;;;39.00;28.90;;;282.20;2099.20;;;;;;5074615;28;20518;-79
2021/04/22 01:59:47;;;;;;;40.22;29.58;;;282.20;2099.20;;;;;;5074605;28;20020;-79
2021/04/22 02:02:13;;;;;;;35.20;28.65;;;282.20;2099.20;;;;;;5074763;28;20082;-79
2021/04/22 02:04:39;;;;;;;42.65;29.10;;;282.20;2073.60;;;;;;5074542;28;20115;-79
2021/04/22 02:07:06;;;;;;;41.20;28.52;;;282.20;2073.60;;;;;;5074065;28;20086;-79
2021/04/22 02:09:32;;;;;;;36.53;28.15;;;282.20;2073.60;;;;;;5074500;28;20041;-79
2021/04/22 02:11:57;;;;;;;38.15;26.48;;;282.20;2073.60;;;;;;5090864;28;20029;-79
2021/04/22 02:14:23;;;;;;;35.45;27.80;;;282.20;2073.60;;;;;;5074432;28;20090;-79
2021/04/22 02:16:50;;;;;;;36.40;28.15;;;282.10;2073.60;;;;;;5074303;28;20017;-78
2021/04/22 02:19:15;;;;;;;32.75;26.27;;;282.10;2073.60;;;;;;5073871;28;20069;-81
2021/04/22 02:21:41;;;;;;;31.92;25.63;;;282.10;2073.60;;;;;;5075715;28;20119;-80
2021/04/22 02:24:07;;;;;;;34.92;26.73;;;282.00;2073.60;;;;;;5074696;28;20037;-80
2021/04/22 02:26:33;;;;;;;35.22;27.45;;;282.00;2073.60;;;;;;5074519;28;20027;-80
2021/04/22 02:28:59;;;;;;;34.78;27.02;;;281.90;2073.60;;;;;;5074148;28;20020;-80
2021/04/22 02:31:24;;;;;;;38.28;26.20;;;281.90;2099.20;;;;;;5074245;28;20032;-79
2021/04/22 02:33:53;;;;;;;36.65;27.27;;;281.80;2099.20;;;;;;5073750;28;20032;-79
2021/04/22 02:36:20;;;;;;;35.65;27.20;;;281.80;2099.20;;;;;;5075433;28;20702;-79
2021/04/22 02:38:46;;;;;;;36.80;27.33;;;281.80;2099.20;;;;;;5075200;28;20687;-80
2021/04/22 02:41:12;;;;;;;33.38;25.42;;;281.80;2099.20;;;;;;5075408;28;20024;-80
2021/04/22 02:43:37;;;;;;;34.78;25.30;;;281.80;2099.20;;;;;;5075334;28;20146;-80
2021/04/22 02:46:03;;;;;;;30.73;25.65;;;281.80;2099.20;;;;;;5073849;28;20094;-80
2021/04/22 02:48:29;;;;;;;31.75;23.60;;;281.70;2073.60;;;;;;5056240;28;20124;-80
2021/04/22 02:50:56;;;;;;;32.53;24.35;;;281.60;2073.60;;;;;;5073152;28;20032;-80
2021/04/22 02:53:25;;;;;;;29.15;23.00;;;256.80;2073.60;;;;;;5073947;28;20017;-79
2021/04/22 02:55:52;;;;;;;35.97;23.88;;;256.70;2099.20;;;;;;5074098;28;20045;-80
2021/04/22 02:58:19;;;;;;;36.63;24.70;;;256.70;2099.20;;;;;;5073794;28;20052;-80
2021/04/22 03:00:46;;;;;;;50.83;32.30;;;256.70;2073.60;;;;;;5073732;28;20055;-81
2021/04/22 03:03:12;;;;;;;51.05;29.88;;;256.80;2073.60;;;;;;5073581;28;20058;-80
2021/04/22 03:05:39;;;;;;;49.33;28.48;;;256.70;2048.00;;;;;;5074679;28;20533;-79
2021/04/22 03:08:05;;;;;;;66.75;32.40;;;256.80;2048.00;;;;;;5073679;28;20055;-79
2021/04/22 03:10:32;;;;;;;67.18;33.67;;;256.80;2048.00;;;;;;5073353;28;20076;-79
2021/04/22 03:12:58;;;;;;;65.47;30.17;;;256.70;2073.60;;;;;;5074695;28;20529;-80
2021/04/22 03:15:25;;;;;;;47.40;27.27;;;256.60;2073.60;;;;;;5073428;28;20028;-80
2021/04/22 03:17:51;;;;;;;48.53;26.58;;;256.70;2048.00;;;;;;5073298;28;20062;-79
2021/04/22 03:20:18;;;;;;;51.03;27.67;;;256.70;2048.00;;;;;;5073469;28;20024;-79
2021/04/22 03:22:45;;;;;;;46.05;28.15;;;256.70;2048.00;;;;;;5073472;28;20439;-81
2021/04/22 03:25:12;;;;;;;61.80;28.45;;;256.60;2073.60;;;;;;5074226;28;20108;-79
2021/04/22 03:27:38;;;;;;;43.28;23.83;;;256.50;2073.60;;;;;;5074460;28;20024;-80
2021/04/22 03:30:07;;;;;;;48.53;22.08;;;256.70;2048.00;;;;;;5072434;28;20031;-79
2021/04/22 03:32:33;;;;;;;49.17;23.88;;;256.80;2022.40;;;;;;5072652;28;20025;-80
2021/04/22 03:34:58;;;;;;;48.20;25.45;;;256.80;2022.40;;;;;;5074588;28;20572;-80
2021/04/22 03:37:24;;;;;;;41.25;20.98;;;256.80;2022.40;;;;;;5074310;28;20027;-79
2021/04/22 03:39:50;;;;;;;41.30;21.10;;;256.80;2022.40;;;;;;5073120;28;20386;-79
2021/04/22 03:42:18;;;;;;;41.10;23.33;;;256.80;2022.40;;;;;;5073186;28;20078;-79
2021/04/22 03:44:45;;;;;;;35.03;22.08;;;256.70;2048.00;;;;;;5072676;28;20098;-79
2021/04/22 03:47:11;;;;;;;39.88;23.38;;;256.60;2048.00;;;;;;5072929;28;20110;-79
2021/04/22 03:49:40;;;;;;;29.05;20.50;;;256.40;2073.60;;;;;;5072618;28;20032;-79
2021/04/22 03:52:07;;;;;;;34.25;22.80;;;256.30;2073.60;;;;;;5072656;28;20056;-80
2021/04/22 03:54:34;;;;;;;31.05;20.65;;;256.40;2048.00;;;;;;5056254;28;20032;-79
2021/04/22 03:57:00;;;;;;;35.40;22.08;;;256.50;2048.00;;;;;;5072676;28;20071;-79
2021/04/22 03:59:27;;;;;;;34.55;20.50;;;256.50;2048.00;;;;;;5072673;28;20074;-79
2021/04/22 04:01:53;;;;;;;34.95;22.05;;;256.60;2048.00;;;;;;5073070;28;20478;-80
2021/04/22 04:04:19;;;;;;;36.05;20.92;;;256.60;2022.40;;;;;;5072473;28;20064;-79
2021/04/22 04:06:45;;;;;;;31.95;20.42;;;256.70;2048.00;;;;;;5072520;28;20056;-78
2021/04/22 04:09:10;;;;;;;31.05;20.65;;;256.60;2048.00;;;;;;5073589;28;20125;-78
2021/04/22 04:11:36;;;;;;;34.40;19.88;;;256.60;2048.00;;;;;;5072487;28;20111;-78
2021/04/22 04:14:02;;;;;;;28.95;18.85;;;256.60;2048.00;;;;;;5071888;28;20111;-78
2021/04/22 04:16:28;;;;;;;38.50;22.20;;;256.60;2048.00;;;;;;5073707;28;20028;-78
2021/04/22 04:18:54;;;;;;;43.13;22.27;;;256.60;2048.00;;;;;;5086422;28;20016;-79
2021/04/22 04:21:19;;;;;;;40.58;21.33;;;256.70;2048.00;;;;;;5078787;28;20101;-79
2021/04/22 04:23:45;;;;;;;40.72;21.13;;;256.80;2022.40;;;;;;5072222;28;20882;-78
2021/04/22 04:26:11;;;;;;;42.88;20.90;;;281.60;2048.00;;;;;;5071946;28;20036;-78
2021/04/22 04:28:36;;;;;;;46.78;19.13;;;281.70;2022.40;;;;;;5072061;28;20397;-78
2021/04/22 04:31:02;;;;;;;28.95;17.27;;;281.80;1996.80;;;;;;5072069;28;20029;-79
2021/04/22 04:33:28;;;;;;;29.30;17.65;;;281.90;1996.80;;;;;;5072191;28;20120;-78
2021/04/22 04:35:54;;;;;;;40.55;17.13;;;282.00;1996.80;;;;;;5072274;28;20093;-79
2021/04/22 04:38:20;;;;;;;27.35;15.02;;;282.00;1971.20;;;;;;5071099;28;20032;-80
2021/04/22 04:40:46;;;;;;;35.75;18.02;;;282.10;1971.20;;;;;;5080102;28;20067;-78
2021/04/22 04:43:11;;;;;;;25.73;16.08;;;282.10;1971.20;;;;;;5092136;28;20036;-78
2021/04/22 04:45:37;;;;;;;82.38;42.17;;;282.20;1971.20;;;;;;5126152;28;20044;-79
2021/04/22 04:48:03;;;;;;;70.50;38.20;;;282.20;1971.20;;;;;;5125794;28;20089;-79
2021/04/22 04:50:29;;;;;;;83.80;52.22;;;282.30;1945.60;;;;;;5092251;28;20024;-79
2021/04/22 04:52:55;;;;;;;56.30;31.95;;;282.40;1945.60;;;;;;5126002;28;20038;-79
2021/04/22 04:55:21;;;;;;;28.15;18.92;;;282.40;1945.60;;;;;;5093677;28;20024;-79
2021/04/22 04:57:47;;;;;;;26.48;13.65;;;282.50;1945.60;;;;;;5126260;28;20043;-79
2021/04/22 05:00:15;;;;;;;22.63;13.73;;;307.20;1971.20;;;;;;5125884;28;20385;-79
2021/04/22 05:02:41;;;;;;;18.40;12.48;;;307.30;1945.60;;;;;;5093643;28;20580;-79
2021/04/22 05:05:09;;;;;;;13.48;11.05;;;307.40;1945.60;;;;;;5092404;28;20055;-79
2021/04/22 05:07:34;;;;;;;17.13;11.68;;;307.50;1945.60;;;;;;5093486;28;20024;-79
2021/04/22 05:10:00;;;;;;;17.20;11.13;;;307.50;1945.60;;;;;;5126158;28;20381;-79
2021/04/22 05:12:26;;;;;;;16.70;11.75;;;307.60;1920.00;;;;;;5126362;28;20392;-79
2021/04/22 05:14:52;;;;;;;15.82;10.82;;;307.60;1920.00;;;;;;5097450;28;20097;-80
2021/04/22 05:17:18;;;;;;;13.10;10.05;;;307.70;1920.00;;;;;;5129561;27;20036;-80
2021/04/22 05:19:44;;;;;;;13.85;11.13;;;307.70;1920.00;;;;;;5097305;28;20024;-80
2021/04/22 05:22:10;;;;;;;28.30;17.38;;;307.80;1920.00;;;;;;5096170;28;20048;-80
2021/04/22 05:24:36;;;;;;;50.35;28.55;;;307.80;1920.00;;;;;;5095985;28;20102;-79
2021/04/22 05:27:02;;;;;;;23.33;15.23;;;307.90;1894.40;;;;;;5130211;27;20024;-79
2021/04/22 05:29:28;;;;;;;17.30;13.30;;;307.90;1894.40;;;;;;5097069;28;20034;-79
2021/04/22 05:31:53;;;;;;;18.95;11.63;;;308.00;1894.40;;;;;;5129765;27;20047;-79
2021/04/22 05:34:19;;;;;;;21.02;12.80;;;308.00;1894.40;;;;;;5095431;28;20028;-78
2021/04/22 05:36:45;;;;;;;17.30;12.23;;;308.10;1868.80;;;;;;5096555;28;20085;-78
2021/04/22 05:39:11;;;;;;;17.30;11.57;;;332.80;1894.40;;;;;;5094604;28;20085;-78
2021/04/22 05:41:37;;;;;;;16.92;10.73;;;332.80;1894.40;;;;;;5096108;28;20028;-79
2021/04/22 05:44:04;;;;;;;19.10;12.23;;;332.90;1894.40;;;;;;5128253;27;20542;-79
2021/04/22 05:46:30;;;;;;;16.58;10.90;;;333.00;1868.80;;;;;;5094386;28;20052;-79
2021/04/22 05:48:55;;;;;;;15.98;9.70;;;333.10;1868.80;;;;;;5094535;28;20034;-79
2021/04/22 05:51:22;;;;;;;16.83;11.10;;;333.10;1868.80;;;;;;5095777;28;20103;-78
2021/04/22 05:53:48;;;;;;;12.13;9.90;;;333.20;1868.80;;;;;;5094877;28;20031;-79
2021/04/22 05:56:14;;;;;;;12.68;11.13;;;333.30;1868.80;;;;;;5095710;28;20020;-78
2021/04/22 05:58:41;;;;;;;14.25;9.57;;;333.30;1868.80;;;;;;5094771;28;20104;-78
2021/04/22 06:01:06;;;;;;;15.00;10.27;;;333.40;1868.80;;;;;;5093638;28;20024;-79
2021/04/22 06:03:32;;;;;;;14.15;11.38;;;333.50;1868.80;;;;;;5127934;27;20043;-78
2021/04/22 06:05:58;;;;;;;14.02;9.57;;;333.60;1868.80;;;;;;5128859;27;20028;-78
2021/04/22 06:08:24;;;;;;;12.55;10.30;;;333.60;1843.20;;;;;;5094512;28;20485;-78
2021/04/22 06:10:50;;;;;;;13.82;12.15;;;333.70;1843.20;;;;;;5094087;28;20346;-78
2021/04/22 06:13:16;;;;;;;12.13;10.40;;;333.70;1843.20;;;;;;5128754;27;20044;-77
2021/04/22 06:15:41;;;;;;;11.85;10.07;;;358.40;1843.20;;;;;;5096087;28;20543;-78
2021/04/22 06:18:08;;;;;;;16.00;10.35;;;358.40;1843.20;;;;;;5128822;27;20024;-77
2021/04/22 06:20:34;;;;;;;13.90;9.52;;;358.50;1843.20;;;;;;5094036;28;20052;-78
2021/04/22 06:23:00;;;;;;;15.48;9.20;;;358.60;1817.60;;;;;;5095315;28;20508;-77
2021/04/22 06:25:26;;;;;;;13.68;9.75;;;358.60;1817.60;;;;;;5093520;28;20105;-77
2021/04/22 06:27:53;;;;;;;16.27;9.27;;;358.70;1817.60;;;;;;5094176;28;20024;-77
2021/04/22 06:30:19;;;;;;;12.85;9.25;;;358.80;1817.60;;;;;;5092396;28;20047;-78
2021/04/22 06:32:45;;;;;;;11.52;9.82;;;358.80;1817.60;;;;;;5093641;28;20095;-78
2021/04/22 06:35:13;;;;;;;9.82;8.82;;;358.90;1817.60;;;;;;5092030;28;20027;-78
2021/04/22 06:37:41;;;;;;;14.13;8.52;;;359.00;1792.00;;;;;;5093093;28;20477;-76
2021/04/22 06:40:11;;;;;;;12.57;8.65;;;359.00;1792.00;;;;;;5092486;28;20548;-77
2021/04/22 06:42:38;;;;;;;14.18;8.60;;;359.10;1792.00;;;;;;5093468;28;20027;-77
2021/04/22 06:45:05;;;;;;;10.07;8.80;;;359.20;1792.00;;;;;;5093501;28;20044;-78
2021/04/22 06:47:31;;;;;;;11.15;8.07;;;359.20;1792.00;;;;;;5092156;28;20039;-79
2021/04/22 06:49:57;;;;;;;11.25;8.23;;;359.30;1766.40;;;;;;5091758;28;20406;-78
2021/04/22 06:52:23;;;;;;;16.20;7.30;;;384.00;1766.40;;;;;;5091999;28;20389;-78
2021/04/22 06:54:48;;;;;;;9.68;7.15;;;384.00;1740.80;;;;;;5092018;28;20505;-78
2021/04/22 06:57:15;;;;;;;9.38;7.32;;;384.10;1715.20;;;;;;5092075;28;20554;-78
2021/04/22 06:59:41;;;;;;;10.55;7.00;;;384.20;1715.20;;;;;;5094039;28;20050;-78
2021/04/22 07:02:08;;;;;;;9.32;7.80;;;384.30;1715.20;;;;;;5099454;28;20389;-79
2021/04/22 07:04:34;;;;;;;8.77;7.55;;;384.40;1689.60;;;;;;5094052;28;20024;-77
2021/04/22 07:07:00;;;;;;;8.25;7.45;;;384.50;1689.60;;;;;;5091590;28;20073;-77
2021/04/22 07:09:26;;;;;;;9.40;8.50;;;384.50;1664.00;;;;;;5092940;28;20024;-78
2021/04/22 07:11:52;;;;;;;9.85;8.85;;;384.60;1689.60;;;;;;5092517;28;20082;-78
2021/04/22 07:14:17;;;;;;;9.80;8.82;;;384.60;1689.60;;;;;;5091345;28;20040;-77
2021/04/22 07:16:43;;;;;;;9.88;8.88;;;384.70;1689.60;;;;;;5091126;28;20027;-78
2021/04/22 07:19:09;;;;;;;10.45;9.43;;;384.80;1689.60;;;;;;5091109;28;20040;-79
2021/04/22 07:21:34;;;;;;;11.07;8.35;;;384.90;1664.00;;;;;;5091369;28;20028;-78
2021/04/22 07:24:01;;;;;;;8.30;7.50;;;409.60;1664.00;;;;;;5092712;28;20841;-78
2021/04/22 07:26:27;;;;;;;9.65;7.85;;;409.70;1664.00;;;;;;5091480;28;20028;-78
2021/04/22 07:28:53;;;;;;;8.65;7.88;;;409.70;1638.40;;;;;;5091325;28;20039;-79
2021/04/22 07:31:19;;;;;;;10.68;7.75;;;409.70;1638.40;;;;;;5092125;28;20066;-78
2021/04/22 07:33:44;;;;;;;8.93;7.88;;;409.80;1612.80;;;;;;5092399;28;20032;-78
2021/04/22 07:36:10;;;;;;;10.15;8.15;;;409.90;1638.40;;;;;;5091582;28;20016;-78
2021/04/22 07:38:36;;;;;;;12.88;8.13;;;409.90;1612.80;;;;;;5092074;28;20073;-79
2021/04/22 07:41:03;;;;;;;9.63;8.60;;;410.10;1612.80;;;;;;5091076;28;20032;-78
2021/04/22 07:43:28;;;;;;;9.43;8.52;;;410.10;1587.20;;;;;;5091059;28;20051;-78
2021/04/22 07:45:54;;;;;;;13.05;9.45;;;410.20;1587.20;;;;;;5091991;28;20176;-78
2021/04/22 07:48:20;;;;;;;10.90;8.45;;;410.20;1587.20;;;;;;5092354;28;20028;-78
2021/04/22 07:50:46;;;;;;;13.70;9.80;;;410.30;1561.60;;;;;;5090939;28;20036;-78
2021/04/22 07:53:12;;;;;;;11.13;8.65;;;410.40;1587.20;;;;;;5090697;28;20035;-78
2021/04/22 07:55:44;;;;;;;9.07;8.07;;;410.50;1561.60;;;;;;5090878;28;20024;-78
2021/04/22 07:58:11;;;;;;;9.30;8.40;;;410.50;1561.60;;;;;;5090774;28;20094;-78
2021/04/22 08:00:38;;;;;;;8.63;7.72;;;435.20;1510.40;;;;;;5090893;28;20489;-78
2021/04/22 08:03:04;;;;;;;8.85;8.02;;;435.30;1536.00;;;;;;5091810;28;20044;-78
2021/04/22 08:05:36;;;;;;;7.82;6.32;;;435.30;1510.40;;;;;;5090795;28;20024;-78
2021/04/22 08:08:03;;;;;;;8.57;7.15;;;435.40;1459.20;;;;;;5090622;28;20027;-78
2021/04/22 08:10:31;;;;;;;7.78;7.13;;;435.50;1484.80;;;;;;5089802;28;20082;-78
2021/04/22 08:12:59;;;;;;;10.20;7.45;;;435.50;1484.80;;;;;;5090677;28;20058;-78
2021/04/22 08:15:25;;;;;;;7.78;6.88;;;435.60;1484.80;;;;;;5091653;28;20028;-77
2021/04/22 08:17:51;;;;;;;12.10;6.75;;;435.60;1484.80;;;;;;5090668;28;20157;-79
2021/04/22 08:20:24;;;;;;;7.55;6.70;;;435.70;1459.20;;;;;;5090463;28;20169;-78
2021/04/22 08:22:50;;;;;;;7.63;6.82;;;435.80;1433.60;;;;;;5090760;28;20081;-78
2021/04/22 08:25:23;;;;;;;12.20;6.32;;;435.80;1408.00;;;;;;5090566;28;20032;-78
2021/04/22 08:27:52;;;;;;;10.32;6.85;;;435.80;1408.00;;;;;;5090056;28;20032;-78
2021/04/22 08:30:39;;;;;;;10.50;6.10;;;435.90;1408.00;;;;;;5091870;28;20027;-77
2021/04/22 08:33:05;;;;;;;8.30;6.53;;;436.00;1382.40;;;;;;5090528;28;20032;-78
2021/04/22 08:35:31;;;;;;;7.53;6.72;;;436.00;1382.40;;;;;;5091301;28;20020;-78
2021/04/22 08:37:57;;;;;;;9.35;7.70;;;436.00;1382.40;;;;;;5093251;28;20095;-78
2021/04/22 08:40:25;;;;;;;8.35;6.43;;;436.10;1356.80;;;;;;5091363;28;20060;-78
2021/04/22 08:42:51;;;;;;;9.13;7.13;;;436.10;1382.40;;;;;;5090528;28;20366;-78
2021/04/22 08:45:18;;;;;;;8.10;7.18;;;460.80;1382.40;;;;;;5090124;28;20124;-78
2021/04/22 08:47:45;;;;;;;9.38;7.13;;;460.80;1382.40;;;;;;5091495;28;20020;-78
2021/04/22 08:50:20;;;;;;;7.10;6.28;;;460.90;1382.40;;;;;;5094407;28;20051;-77
2021/04/22 08:52:48;;;;;;;13.20;7.55;;;461.00;1382.40;;;;;;5095376;28;20056;-78
2021/04/22 08:55:15;;;;;;;9.73;6.68;;;461.00;1331.20;;;;;;5095395;28;20027;-78
2021/04/22 08:57:41;;;;;;;10.05;7.78;;;461.00;1356.80;;;;;;5094350;28;20493;-78
2021/04/22 09:00:09;;;;;;;10.38;7.70;;;461.00;1331.20;;;;;;5095160;28;20032;-78
2021/04/22 09:02:35;;;;;;;10.23;7.80;;;461.10;1382.40;;;;;;5095169;28;20032;-78
2021/04/22 09:05:01;;;;;;;14.05;7.53;;;461.10;1331.20;;;;;;5093984;28;20397;-78
2021/04/22 09:07:27;;;;;;;8.98;7.80;;;461.20;1356.80;;;;;;5093709;28;20024;-78
2021/04/22 09:09:53;;;;;;;7.15;5.95;;;461.30;1331.20;;;;;;5093870;28;20478;-77
2021/04/22 09:12:21;;;;;;;7.63;6.93;;;461.30;1331.20;;;;;;5095253;28;20073;-78
2021/04/22 09:15:06;;;;;;;10.25;7.18;;;461.40;1331.20;;;;;;5093951;28;20036;-78
2021/04/22 09:17:32;;;;;;;8.70;6.75;;;461.40;1331.20;;;;;;5094958;28;20038;-78
2021/04/22 09:19:57;;;;;;;8.27;6.10;;;461.40;1305.60;;;;;;5093451;28;20032;-77
2021/04/22 09:22:41;;;;;;;7.28;6.30;;;461.50;1305.60;;;;;;5094935;28;20028;-77
2021/04/22 09:25:19;;;;;;;9.30;6.03;;;461.50;1305.60;;;;;;5094122;28;20621;-78
2021/04/22 09:27:46;;;;;;;7.22;5.90;;;461.50;1305.60;;;;;;5093615;28;20031;-78
2021/04/22 09:30:28;;;;;;;8.18;6.00;;;461.50;1280.00;;;;;;5093662;28;20027;-77
2021/04/22 09:32:53;;;;;;;8.35;6.32;;;461.60;1280.00;;;;;;5093687;28;20024;-77
2021/04/22 09:35:23;;;;;;;7.78;5.05;;;461.60;1280.00;;;;;;5092700;28;20074;-77
2021/04/22 09:37:52;;;;;;;9.55;6.30;;;461.60;1305.60;;;;;;5098702;28;20469;-78
2021/04/22 09:40:30;;;;;;;6.63;5.82;;;461.70;1280.00;;;;;;5104303;28;20024;-78
2021/04/22 09:43:00;;;;;;;8.45;6.72;;;461.70;1280.00;;;;;;5096351;28;20059;-77
2021/04/22 09:45:29;;;;;;;5.82;5.25;;;486.40;1254.40;;;;;;5094506;28;20469;-78
2021/04/22 09:47:56;;;;;;;5.80;5.30;;;486.40;1228.80;;;;;;5093396;28;20032;-78
2021/04/22 09:50:26;;;;;;;6.50;5.93;;;486.40;1228.80;;;;;;5094478;28;20020;-78
2021/04/22 09:52:55;;;;;;;8.25;6.43;;;486.50;1254.40;;;;;;5094439;28;20020;-77
2021/04/22 09:55:25;;;;;;;7.95;5.60;;;486.50;1228.80;;;;;;5093021;28;20111;-77
2021/04/22 09:57:52;;;;;;;9.82;4.93;;;486.50;1228.80;;;;;;5093118;28;20389;-78
2021/04/22 10:00:30;;;;;;;5.45;4.95;;;486.60;1254.40;;;;;;5093123;28;20027;-78
2021/04/22 10:02:58;;;;;;;7.63;5.35;;;486.60;1228.80;;;;;;5094251;28;20070;-77
2021/04/22 10:05:28;;;;;;;4.63;4.22;;;486.60;1203.20;;;;;;5094081;28;20039;-78
2021/04/22 10:08:13;;;;;;;6.22;4.40;;;486.70;1228.80;;;;;;5088417;28;20405;-79
2021/04/22 10:10:55;;;;;;;11.07;4.95;;;486.70;1228.80;;;;;;5092249;28;20043;-78
2021/04/22 10:13:21;;;;;;;8.68;4.28;;;486.70;1228.80;;;;;;5088473;28;20040;-78
2021/04/22 10:15:52;;;;;;;7.55;5.75;;;486.70;1177.60;;;;;;5092832;28;20401;-78
2021/04/22 10:18:18;;;;;;;8.43;5.35;;;486.80;1203.20;;;;;;5094009;28;20161;-78
2021/04/22 10:20:44;;;;;;;5.30;4.38;;;486.80;1203.20;;;;;;5094247;28;20099;-76
2021/04/22 10:23:11;;;;;;;5.72;5.03;;;486.80;1203.20;;;;;;5093949;28;20028;-78
2021/04/22 10:25:40;;;;;;;5.35;4.85;;;486.90;1228.80;;;;;;5092196;28;20389;-78
2021/04/22 10:28:09;;;;;;;4.83;4.43;;;486.90;1228.80;;;;;;5092242;28;20039;-78
2021/04/22 10:30:36;;;;;;;4.88;4.47;;;486.90;1177.60;;;;;;5093863;28;20757;-78
2021/04/22 10:33:03;;;;;;;8.90;3.95;;;486.90;1152.00;;;;;;5093683;28;20031;-78
2021/04/22 10:35:31;;;;;;;7.68;5.00;;;486.90;1177.60;;;;;;5093954;28;20079;-78
2021/04/22 10:37:57;;;;;;;6.03;4.45;;;486.90;1177.60;;;;;;5092410;28;20062;-78
2021/04/22 10:40:30;;;;;;;6.82;4.95;;;486.90;1177.60;;;;;;5093801;28;20042;-78
2021/04/22 10:42:58;;;;;;;6.15;5.35;;;487.00;1177.60;;;;;;5093381;28;20515;-77
2021/04/22 10:45:24;;;;;;;5.78;4.63;;;487.00;1203.20;;;;;;5091760;28;20105;-78
2021/04/22 10:47:50;;;;;;;6.93;4.57;;;487.10;1203.20;;;;;;5092009;28;20043;-78
2021/04/22 10:50:32;;;;;;;6.47;4.70;;;487.20;1177.60;;;;;;5092069;28;20482;-77
2021/04/22 10:53:00;;;;;;;5.15;4.28;;;487.20;1203.20;;;;;;5086943;28;20040;-77
2021/04/22 10:55:31;;;;;;;7.63;3.15;;;487.30;1152.00;;;;;;5092074;28;20389;-78
2021/04/22 10:58:17;;;;;;;8.02;4.22;;;512.00;1177.60;;;;;;5091938;28;20024;-78
2021/04/22 11:01:03;;;;;;;5.60;3.35;;;512.10;1203.20;;;;;;5093026;28;20094;-78
2021/04/22 11:03:41;;;;;;;3.15;2.42;;;512.10;1100.80;;;;;;5092155;28;20556;-77
2021/04/22 11:06:11;;;;;;;2.95;2.50;;;512.10;1152.00;;;;;;5091742;28;20020;-78
2021/04/22 11:08:45;;;;;;;5.13;2.65;;;512.20;1152.00;;;;;;5091705;28;20098;-78
2021/04/22 11:11:20;;;;;;;6.05;2.60;;;512.30;1152.00;;;;;;5091310;28;20036;-77
2021/04/22 11:13:48;;;;;;;3.97;2.72;;;512.30;1126.40;;;;;;5093457;28;20024;-78
2021/04/22 11:16:14;;;;;;;2.97;2.78;;;512.40;1100.80;;;;;;5093145;28;20028;-77
2021/04/22 11:18:46;;;;;;;2.60;2.42;;;512.40;1075.20;;;;;;5091607;28;20021;-77
2021/04/22 11:21:36;;;;;;;5.60;2.88;;;512.50;1126.40;;;;;;5092855;28;20039;-77
2021/04/22 11:24:04;;;;;;;2.65;2.22;;;512.50;1100.80;;;;;;5091406;28;20374;-78
2021/04/22 11:26:36;;;;;;;4.97;2.35;;;512.60;1075.20;;;;;;5091532;28;20447;-77
2021/04/22 11:29:17;;;;;;;2.45;2.13;;;512.60;1049.60;;;;;;5091691;28;20028;-78
2021/04/22 11:31:48;;;;;;;4.35;2.35;;;512.60;1100.80;;;;;;5091128;28;20474;-77
2021/04/22 11:34:14;;;;;;;4.35;2.55;;;512.80;1075.20;;;;;;5090808;28;20055;-78
2021/04/22 11:36:53;;;;;;;8.05;2.58;;;512.80;1075.20;;;;;;5091090;28;20027;-78
2021/04/22 11:39:31;;;;;;;3.20;2.78;;;512.90;1075.20;;;;;;5092471;28;20016;-78
2021/04/22 11:42:00;;;;;;;2.90;2.67;;;512.90;1024.00;;;;;;5092369;28;20035;-78
2021/04/22 11:44:50;;;;;;;7.13;3.67;;;537.60;1075.20;;;;;;5092470;28;20028;-78
2021/04/22 11:47:15;;;;;;;;;;;537.70;1126.40;;;;;;5074801;28;20036;-78
2021/04/22 11:49:41;;;;;;;2.47;1.90;;;537.70;1100.80;;;;;;5090979;28;20308;-78
2021/04/22 11:52:20;;;;;;;6.38;1.88;;;537.70;1049.60;;;;;;5091285;28;20445;-77
2021/04/22 11:54:49;;;;;;;1.67;1.58;;;537.80;1075.20;;;;;;5092089;28;20062;-78
2021/04/22 11:57:16;;;;;;;3.22;2.40;;;537.80;1049.60;;;;;;5092345;28;20024;-77
2021/04/22 11:59:43;;;;;;;4.60;1.75;;;537.90;1075.20;;;;;;5092058;28;20030;-77
2021/04/22 12:02:10;;;;;;;2.33;1.98;;;538.00;1075.20;;;;;;5092243;28;20431;-77
2021/04/22 12:04:35;;;;;;;1.92;1.83;;;538.10;1024.00;;;;;;5092091;28;20111;-77
2021/04/22 12:07:07;;;;;;;3.75;1.88;;;538.20;1024.00;;;;;;5090692;28;20107;-78
2021/04/22 12:09:33;;;;;;;3.70;1.83;;;538.20;1024.00;;;;;;5084992;28;20024;-77